createdAt,value
2022-09-06T00:01:51.070Z,2.90
2022-09-06T00:04:18.103Z,3.28
2022-09-06T00:06:45.114Z,2.50
2022-09-06T00:09:12.198Z,2.83
2022-09-06T00:11:40.255Z,2.60
2022-09-06T00:14:07.225Z,3.05
2022-09-06T00:16:41.151Z,2.47
2022-09-06T00:19:08.393Z,3.20
2022-09-06T00:21:36.090Z,2.97
2022-09-06T00:24:04.078Z,3.17
2022-09-06T00:26:31.948Z,3.25
2022-09-06T00:29:06.197Z,2.63
2022-09-06T00:31:35.618Z,3.47
2022-09-06T00:34:02.980Z,2.88
2022-09-06T00:36:42.338Z,3.15
2022-09-06T00:39:09.543Z,3.42
2022-09-06T00:41:36.699Z,3.33
2022-09-06T00:44:06.137Z,3.30
2022-09-06T00:46:34.265Z,3.22
2022-09-06T00:49:06.836Z,3.55
2022-09-06T00:52:04.906Z,3.55
2022-09-06T00:54:32.837Z,3.20
2022-09-06T00:57:00.524Z,3.22
2022-09-06T00:59:33.480Z,2.95
2022-09-06T01:02:01.106Z,3.42
2022-09-06T01:04:29.293Z,3.60
2022-09-06T01:07:38.927Z,3.00
2022-09-06T01:10:14.856Z,3.30
2022-09-06T01:13:06.389Z,3.20
2022-09-06T01:16:12.298Z,3.15
2022-09-06T01:19:09.357Z,3.20
2022-09-06T01:25:20.897Z,3.13
2022-09-06T01:28:25.979Z,2.88
2022-09-06T01:31:39.225Z,3.25
2022-09-06T01:34:06.236Z,3.10
2022-09-06T01:36:49.710Z,3.55
2022-09-06T01:39:33.257Z,3.83
2022-09-06T01:42:32.166Z,3.90
2022-09-06T01:45:18.406Z,4.40
2022-09-06T01:48:07.294Z,3.55
2022-09-06T01:50:37.296Z,2.80
2022-09-06T01:53:37.528Z,3.22
2022-09-06T01:56:35.842Z,3.30
2022-09-06T01:59:33.813Z,3.13
2022-09-06T02:02:11.603Z,2.92
2022-09-06T02:04:50.179Z,2.97
2022-09-06T02:07:23.710Z,3.63
2022-09-06T02:10:14.157Z,3.28
2022-09-06T02:12:43.837Z,3.38
2022-09-06T02:15:18.905Z,3.40
2022-09-06T02:18:01.110Z,3.22
2022-09-06T02:20:32.238Z,3.35
2022-09-06T02:23:03.243Z,3.22
2022-09-06T02:26:12.909Z,3.60
2022-09-06T02:28:40.815Z,2.95
2022-09-06T02:31:58.982Z,3.55
2022-09-06T02:34:42.872Z,3.58
2022-09-06T02:37:12.873Z,3.08
2022-09-06T02:39:40.816Z,3.42
2022-09-06T02:42:14.532Z,3.60
2022-09-06T02:44:42.249Z,3.08
2022-09-06T02:47:10.286Z,3.53
2022-09-06T02:50:08.536Z,3.58
2022-09-06T02:52:39.057Z,3.25
2022-09-06T02:55:07.275Z,3.45
2022-09-06T02:57:47.167Z,3.55
2022-09-06T03:00:14.957Z,3.33
2022-09-06T03:03:12.546Z,3.67
2022-09-06T03:05:40.093Z,3.10
2022-09-06T03:08:07.345Z,3.22
2022-09-06T03:11:00.250Z,4.10
2022-09-06T03:13:30.620Z,3.58
2022-09-06T03:16:02.217Z,3.08
2022-09-06T03:18:31.301Z,3.75
2022-09-06T03:20:58.721Z,3.90
2022-09-06T03:27:06.935Z,3.20
2022-09-06T03:29:38.991Z,3.42
2022-09-06T03:32:06.144Z,3.42
2022-09-06T03:34:33.160Z,2.92
2022-09-06T03:37:00.133Z,3.40
2022-09-06T03:39:27.193Z,3.10
2022-09-06T03:41:54.257Z,3.20
2022-09-06T03:44:21.184Z,3.20
2022-09-06T03:46:48.164Z,3.35
2022-09-06T03:49:15.182Z,3.10
2022-09-06T03:51:43.284Z,2.90
2022-09-06T03:54:10.492Z,3.17
2022-09-06T03:56:37.488Z,3.17
2022-09-06T03:59:04.572Z,3.88
2022-09-06T04:01:33.763Z,3.30
2022-09-06T04:04:01.489Z,3.47
2022-09-06T04:06:28.868Z,4.57
2022-09-06T04:09:08.841Z,5.55
2022-09-06T04:11:35.927Z,5.45
2022-09-06T04:14:02.986Z,5.10
2022-09-06T04:17:14.848Z,4.88
2022-09-06T04:19:41.841Z,4.13
2022-09-06T04:22:08.821Z,4.72
2022-09-06T04:25:14.671Z,4.38
2022-09-06T04:27:41.747Z,4.20
2022-09-06T04:30:09.262Z,4.18
2022-09-06T04:32:46.248Z,3.83
2022-09-06T04:35:13.553Z,4.90
2022-09-06T04:37:40.588Z,4.82
2022-09-06T04:40:08.135Z,4.55
2022-09-06T04:42:35.265Z,4.65
2022-09-06T04:45:02.292Z,5.65
2022-09-06T04:47:31.755Z,4.03
2022-09-06T04:49:58.752Z,4.72
2022-09-06T04:52:29.938Z,4.65
2022-09-06T04:55:03.259Z,5.43
2022-09-06T04:57:30.242Z,4.80
2022-09-06T04:59:57.273Z,4.32
2022-09-06T05:02:24.369Z,4.07
2022-09-06T05:04:53.525Z,5.80
2022-09-06T05:07:20.947Z,5.70
2022-09-06T05:09:51.156Z,4.20
2022-09-06T05:12:18.155Z,4.05
2022-09-06T05:14:51.319Z,5.18
2022-09-06T05:17:18.472Z,4.43
2022-09-06T05:19:47.971Z,18.95
2022-09-06T05:22:15.012Z,22.33
2022-09-06T05:24:42.044Z,4.68
2022-09-06T05:27:09.661Z,4.53
2022-09-06T05:29:50.013Z,3.90
2022-09-06T05:32:16.971Z,5.85
2022-09-06T05:34:43.985Z,4.00
2022-09-06T05:37:10.943Z,4.50
2022-09-06T05:39:38.101Z,3.67
2022-09-06T05:42:06.871Z,4.15
2022-09-06T05:44:59.965Z,8.80
2022-09-06T05:47:26.914Z,7.25
2022-09-06T05:49:54.824Z,11.15
2022-09-06T05:52:46.015Z,4.93
2022-09-06T05:55:13.040Z,5.50
2022-09-06T05:57:40.069Z,4.18
2022-09-06T06:00:16.393Z,5.25
2022-09-06T06:02:50.221Z,5.13
2022-09-06T06:05:17.434Z,5.28
2022-09-06T06:07:44.483Z,5.78
2022-09-06T06:10:11.535Z,5.28
2022-09-06T06:12:38.574Z,5.22
2022-09-06T06:15:24.186Z,5.18
2022-09-06T06:17:51.223Z,5.47
2022-09-06T06:20:18.275Z,5.40
2022-09-06T06:22:51.012Z,5.63
2022-09-06T06:25:22.519Z,5.32
2022-09-06T06:27:49.445Z,5.18
2022-09-06T06:30:18.757Z,4.82
2022-09-06T06:32:45.908Z,5.28
2022-09-06T06:35:13.048Z,5.78
2022-09-06T06:37:46.139Z,8.90
2022-09-06T06:40:14.100Z,8.85
2022-09-06T06:42:41.064Z,4.88
2022-09-06T06:45:11.777Z,4.53
2022-09-06T06:47:39.075Z,5.70
2022-09-06T06:50:06.664Z,4.60
2022-09-06T06:52:34.088Z,6.53
2022-09-06T06:55:01.531Z,4.35
2022-09-06T06:57:28.536Z,4.65
2022-09-06T07:00:05.005Z,4.05
2022-09-06T07:02:36.590Z,4.65
2022-09-06T07:07:50.674Z,4.32
2022-09-06T07:10:33.527Z,4.40
2022-09-06T07:13:01.043Z,4.47
2022-09-06T07:15:28.095Z,4.60
2022-09-06T07:18:24.782Z,4.78
2022-09-06T07:26:28.441Z,4.20
2022-09-06T07:28:57.528Z,4.70
2022-09-06T07:34:13.229Z,8.50
2022-09-06T07:36:40.858Z,4.82
2022-09-06T07:39:11.878Z,3.88
2022-09-06T07:41:38.831Z,4.32
2022-09-06T07:44:05.774Z,4.07
2022-09-06T07:46:32.881Z,3.20
2022-09-06T07:48:59.933Z,3.90
2022-09-06T07:51:29.923Z,3.03
2022-09-06T07:54:19.365Z,3.50
2022-09-06T07:56:43.964Z,3.70
2022-09-06T07:59:11.033Z,3.22
2022-09-06T08:01:39.682Z,4.25
2022-09-06T08:04:14.271Z,3.10
2022-09-06T08:09:31.192Z,4.95
2022-09-06T08:11:58.231Z,2.72
2022-09-06T08:14:26.186Z,2.65
2022-09-06T08:16:53.165Z,2.45
2022-09-06T08:19:20.211Z,2.85
2022-09-06T08:21:47.200Z,2.63
2022-09-06T08:24:14.292Z,2.58
2022-09-06T08:26:43.235Z,2.30
2022-09-06T08:29:11.712Z,2.40
2022-09-06T08:31:41.648Z,2.90
2022-09-06T08:34:09.132Z,3.13
2022-09-06T08:36:36.320Z,3.20
2022-09-06T08:39:06.537Z,2.38
2022-09-06T08:41:51.991Z,3.63
2022-09-06T08:47:22.527Z,2.35
2022-09-06T08:49:58.106Z,3.47
2022-09-06T08:52:35.633Z,2.95
2022-09-06T08:55:27.039Z,2.17
2022-09-06T08:58:03.089Z,2.05
2022-09-06T09:00:31.983Z,2.67
2022-09-06T09:03:25.105Z,2.67
2022-09-06T09:05:55.327Z,2.30
2022-09-06T09:08:40.160Z,2.35
2022-09-06T09:11:22.244Z,3.05
2022-09-06T09:13:55.849Z,2.58
2022-09-06T09:16:24.109Z,2.50
2022-09-06T09:19:01.370Z,2.33
2022-09-06T09:21:31.605Z,2.63
2022-09-06T09:24:02.730Z,2.35
2022-09-06T09:26:51.810Z,1.90
2022-09-06T09:29:21.697Z,2.13
2022-09-06T09:31:54.239Z,2.40
2022-09-06T09:34:40.645Z,1.55
2022-09-06T09:40:05.278Z,1.90
2022-09-06T09:42:35.911Z,1.77
2022-09-06T09:45:38.659Z,1.88
2022-09-06T09:48:32.117Z,1.70
2022-09-06T09:51:26.158Z,1.80
2022-09-06T09:54:03.824Z,1.85
2022-09-06T09:56:53.081Z,2.00
2022-09-06T09:59:34.712Z,2.75
2022-09-06T10:02:16.462Z,1.92
2022-09-06T10:04:50.598Z,2.10
2022-09-06T10:07:22.967Z,2.13
2022-09-06T10:10:06.618Z,1.70
2022-09-06T10:12:40.743Z,1.70
2022-09-06T10:15:10.406Z,2.20
2022-09-06T10:17:49.034Z,2.05
2022-09-06T10:20:16.628Z,2.15
2022-09-06T10:22:52.643Z,2.17
2022-09-06T10:25:38.223Z,2.10
2022-09-06T10:28:18.554Z,2.30
2022-09-06T10:31:17.486Z,2.00
2022-09-06T10:34:22.366Z,2.28
2022-09-06T10:37:16.914Z,2.15
2022-09-06T10:39:59.137Z,2.20
2022-09-06T10:42:32.040Z,2.45
2022-09-06T10:45:07.518Z,2.10
2022-09-06T10:47:51.846Z,2.13
2022-09-06T10:50:19.681Z,2.33
2022-09-06T10:52:52.028Z,2.10
2022-09-06T10:55:20.481Z,2.95
2022-09-06T11:00:47.636Z,2.25
2022-09-06T11:06:28.082Z,1.65
2022-09-06T11:09:31.838Z,1.83
2022-09-06T11:12:08.168Z,1.92
2022-09-06T11:14:36.819Z,1.70
2022-09-06T11:17:10.450Z,2.30
2022-09-06T11:20:15.980Z,1.60
2022-09-06T11:22:58.837Z,2.75
2022-09-06T11:25:59.771Z,2.22
2022-09-06T11:28:46.216Z,2.00
2022-09-06T11:34:28.269Z,1.83
2022-09-06T11:36:58.036Z,1.70
2022-09-06T11:43:03.914Z,1.58
2022-09-06T11:45:39.824Z,1.77
2022-09-06T11:48:29.797Z,1.77
2022-09-06T11:50:59.543Z,2.97
2022-09-06T11:53:35.449Z,1.40
2022-09-06T11:56:02.418Z,1.90
2022-09-06T11:58:41.296Z,1.60
2022-09-06T12:01:16.710Z,1.33
2022-09-06T12:04:06.696Z,1.90
2022-09-06T12:06:44.039Z,1.88
2022-09-06T12:09:33.452Z,1.90
2022-09-06T12:12:01.418Z,1.73
2022-09-06T12:14:43.346Z,1.50
2022-09-06T12:17:11.596Z,1.40
2022-09-06T12:19:59.609Z,1.55
2022-09-06T12:22:29.576Z,1.45
2022-09-06T12:25:19.200Z,1.27
2022-09-06T12:28:04.523Z,1.48
2022-09-06T12:30:39.425Z,1.27
2022-09-06T12:33:39.159Z,1.58
2022-09-06T12:36:30.557Z,2.25
2022-09-06T12:39:09.407Z,0.93
2022-09-06T12:41:47.514Z,3.55
2022-09-06T12:44:17.387Z,3.45
2022-09-06T12:46:49.481Z,1.20
2022-09-06T12:49:20.930Z,3.33
2022-09-06T12:51:48.387Z,1.98
2022-09-06T12:54:24.218Z,1.67
2022-09-06T12:56:52.207Z,1.58
2022-09-06T12:59:22.196Z,1.50
2022-09-06T13:02:10.626Z,1.90
2022-09-06T13:04:49.099Z,1.77
2022-09-06T13:07:19.607Z,1.60
2022-09-06T13:09:53.221Z,1.10
2022-09-06T13:12:33.468Z,1.80
2022-09-06T13:15:15.158Z,1.35
2022-09-06T13:17:42.453Z,1.20
2022-09-06T13:20:22.915Z,1.40
2022-09-06T13:22:52.114Z,1.30
2022-09-06T13:25:22.419Z,0.95
2022-09-06T13:27:51.702Z,1.02
2022-09-06T13:30:39.660Z,1.30
2022-09-06T13:33:08.403Z,1.40
2022-09-06T13:35:41.254Z,1.88
2022-09-06T13:38:32.725Z,1.05
2022-09-06T13:41:17.100Z,1.27
2022-09-06T13:43:52.985Z,1.42
2022-09-06T13:46:20.690Z,1.27
2022-09-06T13:48:48.957Z,1.10
2022-09-06T13:51:29.689Z,1.00
2022-09-06T13:54:11.911Z,1.42
2022-09-06T13:56:39.859Z,1.30
2022-09-06T13:59:17.576Z,1.38
2022-09-06T14:01:47.487Z,1.30
2022-09-06T14:04:22.244Z,1.50
2022-09-06T14:06:52.202Z,1.00
2022-09-06T14:09:19.536Z,1.52
2022-09-06T14:11:48.390Z,0.90
2022-09-06T14:14:18.822Z,1.20
2022-09-06T14:16:50.193Z,1.00
2022-09-06T14:19:17.554Z,1.02
2022-09-06T14:21:44.800Z,1.20
2022-09-06T14:24:11.844Z,1.08
2022-09-06T14:26:39.635Z,1.15
2022-09-06T14:29:07.438Z,1.00
2022-09-06T14:31:34.813Z,1.10
2022-09-06T14:34:03.746Z,0.95
2022-09-06T14:36:34.377Z,1.25
2022-09-06T14:39:06.233Z,1.02
2022-09-06T14:41:33.522Z,1.00
2022-09-06T14:44:00.704Z,1.27
2022-09-06T14:46:36.533Z,1.35
2022-09-06T14:49:15.977Z,0.85
2022-09-06T14:51:43.616Z,1.13
2022-09-06T14:54:12.910Z,1.60
2022-09-06T14:56:57.010Z,1.27
2022-09-06T14:59:24.748Z,1.20
2022-09-06T15:01:52.083Z,1.00
2022-09-06T15:04:19.277Z,1.77
2022-09-06T15:06:48.570Z,0.98
2022-09-06T15:09:23.170Z,0.98
2022-09-06T15:11:53.695Z,1.17
2022-09-06T15:14:33.295Z,1.10
2022-09-06T15:17:00.811Z,0.93
2022-09-06T15:19:30.117Z,1.25
2022-09-06T15:22:12.525Z,1.10
2022-09-06T15:24:40.627Z,0.93
2022-09-06T15:27:09.807Z,1.27
2022-09-06T15:29:37.770Z,1.23
2022-09-06T15:32:04.804Z,1.60
2022-09-06T15:34:31.825Z,1.23
2022-09-06T15:36:58.763Z,1.30
2022-09-06T15:39:25.931Z,1.67
2022-09-06T15:41:55.074Z,1.48
2022-09-06T15:44:22.121Z,1.23
2022-09-06T15:46:58.341Z,1.60
2022-09-06T15:49:31.910Z,1.20
2022-09-06T15:52:01.324Z,1.23
2022-09-06T15:54:47.213Z,1.30
2022-09-06T15:57:16.428Z,1.52
2022-09-06T15:59:44.266Z,1.00
2022-09-06T16:02:12.836Z,1.02
2022-09-06T16:04:40.292Z,1.63
2022-09-06T16:07:07.316Z,1.13
2022-09-06T16:09:34.437Z,1.73
2022-09-06T16:12:01.557Z,1.40
2022-09-06T16:14:29.126Z,1.50
2022-09-06T16:16:57.547Z,1.48
2022-09-06T16:19:26.225Z,1.33
2022-09-06T16:21:53.778Z,1.45
2022-09-06T16:24:23.932Z,1.42
2022-09-06T16:26:51.075Z,1.58
2022-09-06T16:29:19.322Z,1.40
2022-09-06T16:31:47.468Z,1.35
2022-09-06T16:34:15.214Z,1.50
2022-09-06T16:36:42.432Z,1.52
2022-09-06T16:39:10.144Z,2.00
2022-09-06T16:41:42.929Z,1.80
2022-09-06T16:44:16.786Z,1.10
2022-09-06T16:46:45.364Z,2.05
2022-09-06T16:49:12.480Z,1.80
2022-09-06T16:51:39.498Z,1.45
2022-09-06T16:54:07.009Z,1.60
2022-09-06T16:56:36.030Z,1.30
2022-09-06T16:59:08.540Z,2.00
2022-09-06T17:01:37.342Z,1.63
2022-09-06T17:04:05.915Z,1.45
2022-09-06T17:06:34.268Z,1.67
2022-09-06T17:09:01.633Z,1.30
2022-09-06T17:11:29.392Z,1.77
2022-09-06T17:13:58.611Z,1.75
2022-09-06T17:16:44.763Z,1.85
2022-09-06T17:19:12.118Z,2.00
2022-09-06T17:21:40.162Z,2.25
2022-09-06T17:24:08.410Z,1.58
2022-09-06T17:26:39.593Z,2.10
2022-09-06T17:29:07.414Z,2.00
2022-09-06T17:31:35.049Z,5.40
2022-09-06T17:34:02.232Z,5.80
2022-09-06T17:36:32.608Z,24.88
2022-09-06T17:39:02.051Z,11.77
2022-09-06T17:41:51.207Z,3.67
2022-09-06T17:44:21.406Z,5.03
2022-09-06T17:47:09.058Z,2.88
2022-09-06T17:49:36.276Z,2.05
2022-09-06T17:52:03.578Z,2.97
2022-09-06T17:54:31.957Z,3.85
2022-09-06T17:56:59.013Z,2.50
2022-09-06T17:59:26.081Z,2.53
2022-09-06T18:01:53.073Z,2.97
2022-09-06T18:04:20.121Z,2.70
2022-09-06T18:06:47.742Z,3.13
2022-09-06T18:09:17.395Z,2.70
2022-09-06T18:11:49.767Z,2.22
2022-09-06T18:14:20.940Z,1.90
2022-09-06T18:16:50.914Z,2.20
2022-09-06T18:19:18.991Z,2.40
2022-09-06T18:21:46.978Z,1.92
2022-09-06T18:24:14.377Z,2.67
2022-09-06T18:26:42.498Z,1.92
2022-09-06T18:29:13.195Z,2.22
2022-09-06T18:31:41.262Z,2.28
2022-09-06T18:34:08.958Z,1.92
2022-09-06T18:36:36.816Z,2.15
2022-09-06T18:39:05.161Z,2.10
2022-09-06T18:41:53.922Z,2.40
2022-09-06T18:44:21.779Z,2.75
2022-09-06T18:46:49.363Z,2.63
2022-09-06T18:49:17.002Z,2.72
2022-09-06T18:51:45.838Z,2.25
2022-09-06T18:54:13.735Z,2.20
2022-09-06T18:56:44.856Z,2.95
2022-09-06T18:59:13.946Z,2.88
2022-09-06T19:01:41.138Z,2.45
2022-09-06T19:04:08.680Z,2.67
2022-09-06T19:06:37.582Z,2.67
2022-09-06T19:09:07.445Z,2.72
2022-09-06T19:11:35.289Z,2.25
2022-09-06T19:14:03.229Z,2.20
2022-09-06T19:16:31.567Z,2.42
2022-09-06T19:19:03.883Z,2.15
2022-09-06T19:21:31.781Z,2.53
2022-09-06T19:24:01.251Z,2.72
2022-09-06T19:26:31.737Z,2.13
2022-09-06T19:29:04.667Z,3.03
2022-09-06T19:31:34.217Z,2.50
2022-09-06T19:34:01.392Z,2.33
2022-09-06T19:36:29.579Z,3.03
2022-09-06T19:39:03.674Z,3.05
2022-09-06T19:41:32.679Z,2.53
2022-09-06T19:44:00.357Z,3.35
2022-09-06T19:46:27.963Z,3.63
2022-09-06T19:48:58.480Z,2.65
2022-09-06T19:51:25.889Z,3.22
2022-09-06T19:53:55.031Z,3.50
2022-09-06T19:56:27.835Z,3.28
2022-09-06T19:58:56.370Z,3.08
2022-09-06T20:01:25.369Z,4.63
2022-09-06T20:03:52.870Z,3.25
2022-09-06T20:06:19.907Z,3.88
2022-09-06T20:08:53.469Z,3.30
2022-09-06T20:11:22.476Z,3.20
2022-09-06T20:13:50.049Z,4.00
2022-09-06T20:16:20.446Z,4.57
2022-09-06T20:18:48.722Z,4.22
2022-09-06T20:21:18.617Z,3.30
2022-09-06T20:23:54.538Z,3.55
2022-09-06T20:26:23.988Z,3.65
2022-09-06T20:28:59.423Z,3.60
2022-09-06T20:31:28.472Z,2.80
2022-09-06T20:33:56.778Z,3.17
2022-09-06T20:36:23.895Z,2.95
2022-09-06T20:38:51.069Z,3.60
2022-09-06T20:41:21.579Z,3.13
2022-09-06T20:43:53.646Z,3.80
2022-09-06T20:46:23.120Z,3.60
2022-09-06T20:48:50.746Z,3.63
2022-09-06T20:51:20.937Z,3.83
2022-09-06T20:53:52.957Z,3.85
2022-09-06T20:56:25.921Z,3.55
2022-09-06T20:58:59.086Z,3.88
2022-09-06T21:01:28.181Z,4.30
2022-09-06T21:03:58.479Z,4.03
2022-09-06T21:06:27.702Z,3.67
2022-09-06T21:08:56.127Z,3.40
2022-09-06T21:11:24.177Z,3.45
2022-09-06T21:13:53.798Z,4.05
2022-09-06T21:16:24.691Z,4.05
2022-09-06T21:18:57.864Z,4.72
2022-09-06T21:21:26.006Z,3.83
2022-09-06T21:23:53.687Z,5.25
2022-09-06T21:26:22.551Z,4.35
2022-09-06T21:28:50.179Z,3.70
2022-09-06T21:31:22.082Z,4.70
2022-09-06T21:33:52.808Z,4.90
2022-09-06T21:36:30.270Z,4.10
2022-09-06T21:38:59.835Z,4.57
2022-09-06T21:41:28.467Z,4.32
2022-09-06T21:44:00.447Z,4.05
2022-09-06T21:46:32.912Z,3.92
2022-09-06T21:49:04.097Z,4.50
2022-09-06T21:51:32.515Z,4.25
2022-09-06T21:54:03.600Z,4.72
2022-09-06T21:56:31.735Z,4.82
2022-09-06T21:58:59.142Z,4.90
2022-09-06T22:01:29.062Z,5.65
2022-09-06T22:03:56.167Z,5.07
2022-09-06T22:06:28.969Z,5.20
2022-09-06T22:08:58.149Z,4.43
2022-09-06T22:11:30.729Z,6.07
2022-09-06T22:14:06.321Z,4.78
2022-09-06T22:16:35.381Z,4.88
2022-09-06T22:19:04.980Z,4.97
2022-09-06T22:21:32.473Z,5.32
2022-09-06T22:24:02.239Z,5.82
2022-09-06T22:26:30.790Z,3.92
2022-09-06T22:29:00.085Z,5.00
2022-09-06T22:31:28.859Z,4.43
2022-09-06T22:33:56.598Z,4.57
2022-09-06T22:36:25.625Z,5.22
2022-09-06T22:38:57.471Z,4.57
2022-09-06T22:41:26.048Z,4.60
2022-09-06T22:43:53.312Z,4.93
2022-09-06T22:46:20.631Z,4.20
2022-09-06T22:48:47.986Z,4.15
2022-09-06T22:51:15.292Z,4.85
2022-09-06T22:53:42.231Z,4.72
2022-09-06T22:56:09.269Z,4.38
2022-09-06T22:58:36.379Z,4.60
2022-09-06T23:01:12.506Z,4.25
2022-09-06T23:03:40.855Z,4.60
2022-09-06T23:06:08.654Z,4.63
2022-09-06T23:08:38.081Z,4.75
2022-09-06T23:11:07.922Z,4.60
2022-09-06T23:13:35.366Z,5.20
2022-09-06T23:16:07.522Z,4.50
2022-09-06T23:18:34.579Z,4.95
2022-09-06T23:21:09.268Z,4.95
2022-09-06T23:23:38.444Z,4.90
2022-09-06T23:26:10.619Z,5.15
2022-09-06T23:28:38.481Z,6.32
2022-09-06T23:31:07.723Z,5.68
2022-09-06T23:33:36.333Z,5.00
2022-09-06T23:36:05.439Z,5.68
2022-09-06T23:38:37.181Z,5.30
2022-09-06T23:41:05.859Z,5.55
2022-09-06T23:43:33.139Z,5.32
2022-09-06T23:46:00.378Z,4.50
2022-09-06T23:48:27.832Z,4.55
2022-09-06T23:50:54.922Z,5.45
2022-09-06T23:53:22.231Z,5.47
2022-09-06T23:55:49.324Z,5.82
2022-09-06T23:58:16.586Z,6.13
